sensor_id;sensor_type;location;lat;lon;timestamp;pressure;altitude;pressure_sealevel;temperature;humidity
7022;BME280;3552;42.664;23.406;2022-09-12T00:00:41;48430.78;;;-141.28;100.00
7022;BME280;3552;42.664;23.406;2022-09-12T00:03:10;48424.88;;;-141.28;100.00
7022;BME280;3552;42.664;23.406;2022-09-12T00:05:40;48415.06;;;-141.28;100.00
7022;BME280;3552;42.664;23.406;2022-09-12T00:08:07;48409.19;;;-141.28;100.00
7022;BME280;3552;42.664;23.406;2022-09-12T00:10:36;48415.06;;;-141.28;100.00
7022;BME280;3552;42.664;23.406;2022-09-12T00:13:05;48407.22;;;-141.28;100.00
7022;BME280;3552;42.664;23.406;2022-09-12T00:15:37;48426.84;;;-141.28;100.00
7022;BME280;3552;42.664;23.406;2022-09-12T00:18:04;48417.03;;;-141.28;100.00
7022;BME280;3552;42.664;23.406;2022-09-12T00:20:32;48417.03;;;-141.28;100.00
7022;BME280;3552;42.664;23.406;2022-09-12T00:23:00;48422.94;;;-141.28;100.00
7022;BME280;3552;42.664;23.406;2022-09-12T00:25:27;48434.69;;;-141.28;100.00
7022;BME280;3552;42.664;23.406;2022-09-12T00:27:55;48430.78;;;-141.28;100.00
7022;BME280;3552;42.664;23.406;2022-09-12T00:30:22;48434.69;;;-141.28;100.00
7022;BME280;3552;42.664;23.406;2022-09-12T00:32:49;48426.84;;;-141.28;100.00
7022;BME280;3552;42.664;23.406;2022-09-12T00:35:19;48426.84;;;-141.28;100.00
7022;BME280;3552;42.664;23.406;2022-09-12T00:37:47;48434.69;;;-141.28;100.00
7022;BME280;3552;42.664;23.406;2022-09-12T00:40:14;48428.81;;;-141.28;100.00
7022;BME280;3552;42.664;23.406;2022-09-12T00:42:41;48434.69;;;-141.28;100.00
7022;BME280;3552;42.664;23.406;2022-09-12T00:45:18;48448.44;;;-141.28;100.00
7022;BME280;3552;42.664;23.406;2022-09-12T00:47:48;48454.31;;;-141.28;100.00
7022;BME280;3552;42.664;23.406;2022-09-12T00:50:18;48446.47;;;-141.28;100.00
7022;BME280;3552;42.664;23.406;2022-09-12T00:52:48;48458.22;;;-141.28;100.00
7022;BME280;3552;42.664;23.406;2022-09-12T00:55:21;48473.94;;;-141.28;100.00
7022;BME280;3552;42.664;23.406;2022-09-12T00:57:52;48471.97;;;-141.28;100.00
7022;BME280;3552;42.664;23.406;2022-09-12T01:00:21;48483.75;;;-141.28;100.00
7022;BME280;3552;42.664;23.406;2022-09-12T01:02:51;48491.59;;;-141.28;100.00
7022;BME280;3552;42.664;23.406;2022-09-12T01:05:21;48509.25;;;-141.28;100.00
7022;BME280;3552;42.664;23.406;2022-09-12T01:07:51;48513.16;;;-141.28;100.00
7022;BME280;3552;42.664;23.406;2022-09-12T01:10:19;48511.19;;;-141.28;100.00
7022;BME280;3552;42.664;23.406;2022-09-12T01:12:47;48532.78;;;-141.28;100.00
7022;BME280;3552;42.664;23.406;2022-09-12T01:15:13;48534.75;;;-141.28;100.00
7022;BME280;3552;42.664;23.406;2022-09-12T01:17:51;48556.31;;;-141.28;100.00
7022;BME280;3552;42.664;23.406;2022-09-12T01:20:45;48613.22;;;-141.28;100.00
7022;BME280;3552;42.664;23.406;2022-09-12T01:26:34;48615.19;;;-141.28;100.00
7022;BME280;3552;42.664;23.406;2022-09-12T01:29:17;48599.47;;;-141.28;100.00
7022;BME280;3552;42.664;23.406;2022-09-12T01:31:52;48554.34;;;-141.28;100.00
7022;BME280;3552;42.664;23.406;2022-09-12T01:34:24;48524.94;;;-141.28;100.00
7022;BME280;3552;42.664;23.406;2022-09-12T01:36:59;48524.94;;;-141.28;100.00
7022;BME280;3552;42.664;23.406;2022-09-12T01:39:45;48519.06;;;-141.28;100.00
7022;BME280;3552;42.664;23.406;2022-09-12T01:42:19;48572.00;;;-141.28;100.00
7022;BME280;3552;42.664;23.406;2022-09-12T01:44:55;48546.50;;;-141.28;100.00
7022;BME280;3552;42.664;23.406;2022-09-12T01:47:30;48548.47;;;-141.28;100.00
7022;BME280;3552;42.664;23.406;2022-09-12T01:50:04;48540.63;;;-141.28;100.00
7022;BME280;3552;42.664;23.406;2022-09-12T01:52:37;48532.78;;;-141.28;100.00
7022;BME280;3552;42.664;23.406;2022-09-12T01:55:09;48532.78;;;-141.28;100.00
7022;BME280;3552;42.664;23.406;2022-09-12T01:57:38;48536.69;;;-141.28;100.00
7022;BME280;3552;42.664;23.406;2022-09-12T02:00:10;48560.25;;;-141.28;100.00
7022;BME280;3552;42.664;23.406;2022-09-12T02:02:42;48564.16;;;-141.28;100.00
7022;BME280;3552;42.664;23.406;2022-09-12T02:05:17;48579.88;;;-141.28;100.00
7022;BME280;3552;42.664;23.406;2022-09-12T02:07:48;48587.72;;;-141.28;100.00
7022;BME280;3552;42.664;23.406;2022-09-12T02:10:19;48587.72;;;-141.28;100.00
7022;BME280;3552;42.664;23.406;2022-09-12T02:12:50;48597.53;;;-141.28;100.00
7022;BME280;3552;42.664;23.406;2022-09-12T02:15:22;48615.19;;;-141.28;100.00
7022;BME280;3552;42.664;23.406;2022-09-12T02:17:51;48599.47;;;-141.28;100.00
7022;BME280;3552;42.664;23.406;2022-09-12T02:20:23;48607.31;;;-141.28;100.00
7022;BME280;3552;42.664;23.406;2022-09-12T02:22:52;48595.56;;;-141.28;100.00
7022;BME280;3552;42.664;23.406;2022-09-12T02:25:21;48587.72;;;-141.28;100.00
7022;BME280;3552;42.664;23.406;2022-09-12T02:27:52;48599.47;;;-141.28;100.00
7022;BME280;3552;42.664;23.406;2022-09-12T02:30:21;48587.72;;;-141.28;100.00
7022;BME280;3552;42.664;23.406;2022-09-12T02:32:56;48611.25;;;-141.28;100.00
7022;BME280;3552;42.664;23.406;2022-09-12T02:35:31;48595.56;;;-141.28;100.00
7022;BME280;3552;42.664;23.406;2022-09-12T02:38:03;48619.09;;;-141.28;100.00
7022;BME280;3552;42.664;23.406;2022-09-12T02:40:32;48619.09;;;-141.28;100.00
7022;BME280;3552;42.664;23.406;2022-09-12T02:43:00;48615.19;;;-141.28;100.00
7022;BME280;3552;42.664;23.406;2022-09-12T02:45:28;48619.09;;;-141.28;100.00
7022;BME280;3552;42.664;23.406;2022-09-12T02:48:01;48640.69;;;-141.28;100.00
7022;BME280;3552;42.664;23.406;2022-09-12T02:50:31;48658.34;;;-141.28;100.00
7022;BME280;3552;42.664;23.406;2022-09-12T02:52:58;48650.50;;;-141.28;100.00
7022;BME280;3552;42.664;23.406;2022-09-12T02:55:29;48658.34;;;-141.28;100.00
7022;BME280;3552;42.664;23.406;2022-09-12T02:57:57;48662.25;;;-141.28;100.00
7022;BME280;3552;42.664;23.406;2022-09-12T03:00:24;48677.94;;;-141.28;100.00
7022;BME280;3552;42.664;23.406;2022-09-12T03:03:08;48728.97;;;-141.28;100.00
7022;BME280;3552;42.664;23.406;2022-09-12T03:05:44;48732.88;;;-141.28;100.00
7022;BME280;3552;42.664;23.406;2022-09-12T03:08:35;48758.38;;;-141.28;100.00
7022;BME280;3552;42.664;23.406;2022-09-12T03:11:31;48744.66;;;-141.28;100.00
7022;BME280;3552;42.664;23.406;2022-09-12T03:14:11;48740.72;;;-141.28;100.00
7022;BME280;3552;42.664;23.406;2022-09-12T03:16:50;48703.47;;;-141.28;100.00
7022;BME280;3552;42.664;23.406;2022-09-12T03:19:25;48693.66;;;-141.28;100.00
7022;BME280;3552;42.664;23.406;2022-09-12T03:22:02;48658.34;;;-141.28;100.00
7022;BME280;3552;42.664;23.406;2022-09-12T03:24:33;48662.25;;;-141.28;100.00
7022;BME280;3552;42.664;23.406;2022-09-12T03:27:07;48674.03;;;-141.28;100.00
7022;BME280;3552;42.664;23.406;2022-09-12T03:29:37;48652.44;;;-141.28;100.00
7022;BME280;3552;42.664;23.406;2022-09-12T03:32:05;48646.56;;;-141.28;100.00
7022;BME280;3552;42.664;23.406;2022-09-12T03:34:34;48646.56;;;-141.28;100.00
7022;BME280;3552;42.664;23.406;2022-09-12T03:37:01;48634.78;;;-141.28;100.00
7022;BME280;3552;42.664;23.406;2022-09-12T03:39:28;48644.59;;;-141.28;100.00
7022;BME280;3552;42.664;23.406;2022-09-12T03:41:56;48676.00;;;-141.28;100.00
7022;BME280;3552;42.664;23.406;2022-09-12T03:44:23;48662.25;;;-141.28;100.00
7022;BME280;3552;42.664;23.406;2022-09-12T03:46:50;48646.56;;;-141.28;100.00
7022;BME280;3552;42.664;23.406;2022-09-12T03:49:18;48676.00;;;-141.28;100.00
7022;BME280;3552;42.664;23.406;2022-09-12T03:51:47;48693.66;;;-141.28;100.00
7022;BME280;3552;42.664;23.406;2022-09-12T03:54:15;48687.75;;;-141.28;100.00
7022;BME280;3552;42.664;23.406;2022-09-12T03:56:41;48693.66;;;-141.28;100.00
7022;BME280;3552;42.664;23.406;2022-09-12T03:59:08;48709.34;;;-141.28;100.00
7022;BME280;3552;42.664;23.406;2022-09-12T04:01:36;48713.25;;;-141.28;100.00
7022;BME280;3552;42.664;23.406;2022-09-12T04:04:04;48728.97;;;-141.28;100.00
7022;BME280;3552;42.664;23.406;2022-09-12T04:06:31;48728.97;;;-141.28;100.00
7022;BME280;3552;42.664;23.406;2022-09-12T04:08:59;48676.00;;;-141.28;100.00
7022;BME280;3552;42.664;23.406;2022-09-12T04:11:26;48721.13;;;-141.28;100.00
7022;BME280;3552;42.664;23.406;2022-09-12T04:13:53;48728.97;;;-141.28;100.00
7022;BME280;3552;42.664;23.406;2022-09-12T04:16:21;48721.13;;;-141.28;100.00
7022;BME280;3552;42.664;23.406;2022-09-12T04:18:48;48736.81;;;-141.28;100.00
7022;BME280;3552;42.664;23.406;2022-09-12T04:21:18;48744.66;;;-141.28;100.00
7022;BME280;3552;42.664;23.406;2022-09-12T04:23:46;48770.16;;;-141.28;100.00
7022;BME280;3552;42.664;23.406;2022-09-12T04:26:16;48781.94;;;-141.28;100.00
7022;BME280;3552;42.664;23.406;2022-09-12T04:28:44;48778.00;;;-141.28;100.00
7022;BME280;3552;42.664;23.406;2022-09-12T04:31:13;48758.38;;;-141.28;100.00
7022;BME280;3552;42.664;23.406;2022-09-12T04:33:42;48787.81;;;-141.28;100.00
7022;BME280;3552;42.664;23.406;2022-09-12T04:36:11;48760.34;;;-141.28;100.00
7022;BME280;3552;42.664;23.406;2022-09-12T04:38:41;48801.56;;;-141.28;100.00
7022;BME280;3552;42.664;23.406;2022-09-12T04:41:12;48803.50;;;-141.28;100.00
7022;BME280;3552;42.664;23.406;2022-09-12T04:43:41;48815.28;;;-141.28;100.00
7022;BME280;3552;42.664;23.406;2022-09-12T04:46:11;48838.81;;;-141.28;100.00
7022;BME280;3552;42.664;23.406;2022-09-12T04:48:40;48846.69;;;-141.28;100.00
7022;BME280;3552;42.664;23.406;2022-09-12T04:51:09;48854.53;;;-141.28;100.00
7022;BME280;3552;42.664;23.406;2022-09-12T04:53:37;48866.28;;;-141.28;100.00
7022;BME280;3552;42.664;23.406;2022-09-12T04:56:04;48891.78;;;-141.28;100.00
7022;BME280;3552;42.664;23.406;2022-09-12T04:58:32;48915.34;;;-141.28;100.00
7022;BME280;3552;42.664;23.406;2022-09-12T05:01:06;48958.50;;;-141.28;100.00
7022;BME280;3552;42.664;23.406;2022-09-12T05:03:33;48950.66;;;-141.28;100.00
7022;BME280;3552;42.664;23.406;2022-09-12T05:06:04;48991.84;;;-141.28;100.00
7022;BME280;3552;42.664;23.406;2022-09-12T05:08:33;49003.63;;;-141.28;100.00
7022;BME280;3552;42.664;23.406;2022-09-12T05:11:02;49019.31;;;-141.28;100.00
7022;BME280;3552;42.664;23.406;2022-09-12T05:13:30;48956.53;;;-141.28;100.00
7022;BME280;3552;42.664;23.406;2022-09-12T05:15:59;49062.50;;;-141.28;100.00
7022;BME280;3552;42.664;23.406;2022-09-12T05:18:30;49123.31;;;-141.28;100.00
7022;BME280;3552;42.664;23.406;2022-09-12T05:20:59;49152.75;;;-141.28;100.00
7022;BME280;3552;42.664;23.406;2022-09-12T05:23:28;49233.19;;;-141.28;100.00
7022;BME280;3552;42.664;23.406;2022-09-12T05:25:57;49270.47;;;-141.28;100.00
7022;BME280;3552;42.664;23.406;2022-09-12T05:28:28;49360.75;;;-141.28;100.00
7022;BME280;3552;42.664;23.406;2022-09-12T05:30:59;49407.84;;;-141.28;100.00
7022;BME280;3552;42.664;23.406;2022-09-12T05:33:29;49494.16;;;-141.28;100.00
7022;BME280;3552;42.664;23.406;2022-09-12T05:35:57;49541.25;;;-141.28;100.00
7022;BME280;3552;42.664;23.406;2022-09-12T05:38:25;49666.84;;;-141.28;100.00
7022;BME280;3552;42.664;23.406;2022-09-12T05:40:53;49757.13;;;-141.28;100.00
7022;BME280;3552;42.664;23.406;2022-09-12T05:43:22;49814.03;;;-141.28;100.00
7022;BME280;3552;42.664;23.406;2022-09-12T05:45:49;49910.19;;;-141.28;100.00
7022;BME280;3552;42.664;23.406;2022-09-12T05:48:16;49996.56;;;-141.28;100.00
7022;BME280;3552;42.664;23.406;2022-09-12T05:50:45;50114.31;;;-141.28;100.00
7022;BME280;3552;42.664;23.406;2022-09-12T05:53:12;50179.09;;;-141.28;100.00
7022;BME280;3552;42.664;23.406;2022-09-12T05:55:40;50212.44;;;-141.28;100.00
7022;BME280;3552;42.664;23.406;2022-09-12T05:58:07;50259.56;;;-141.28;100.00
7022;BME280;3552;42.664;23.406;2022-09-12T06:00:34;50336.09;;;-141.28;100.00
7022;BME280;3552;42.664;23.406;2022-09-12T06:03:01;50408.72;;;-141.28;100.00
7022;BME280;3552;42.664;23.406;2022-09-12T06:05:28;50510.78;;;-141.28;100.00
7022;BME280;3552;42.664;23.406;2022-09-12T06:07:59;50557.91;;;-141.28;100.00
7022;BME280;3552;42.664;23.406;2022-09-12T06:10:26;50597.16;;;-141.28;100.00
7022;BME280;3552;42.664;23.406;2022-09-12T06:12:53;50640.34;;;-141.28;100.00
7022;BME280;3552;42.664;23.406;2022-09-12T06:15:22;50656.06;;;-141.28;100.00
7022;BME280;3552;42.664;23.406;2022-09-12T06:17:49;50593.22;;;-141.28;100.00
7022;BME280;3552;42.664;23.406;2022-09-12T06:20:17;50593.22;;;-141.28;100.00
7022;BME280;3552;42.664;23.406;2022-09-12T06:22:45;50612.88;;;-141.28;100.00
7022;BME280;3552;42.664;23.406;2022-09-12T06:25:14;50632.50;;;-141.28;100.00
7022;BME280;3552;42.664;23.406;2022-09-12T06:27:41;50656.06;;;-141.28;100.00
7022;BME280;3552;42.664;23.406;2022-09-12T06:30:08;50687.47;;;-141.28;100.00
7022;BME280;3552;42.664;23.406;2022-09-12T06:32:35;50716.91;;;-141.28;100.00
7022;BME280;3552;42.664;23.406;2022-09-12T06:35:03;50734.56;;;-141.28;100.00
7022;BME280;3552;42.664;23.406;2022-09-12T06:37:30;50762.06;;;-141.28;100.00
7022;BME280;3552;42.664;23.406;2022-09-12T06:39:57;50742.41;;;-141.28;100.00
7022;BME280;3552;42.664;23.406;2022-09-12T06:42:28;50734.56;;;-141.28;100.00
7022;BME280;3552;42.664;23.406;2022-09-12T06:44:55;50648.19;;;-141.28;100.00
7022;BME280;3552;42.664;23.406;2022-09-12T06:47:23;50601.09;;;-141.28;100.00
7022;BME280;3552;42.664;23.406;2022-09-12T06:49:52;50632.50;;;-141.28;100.00
7022;BME280;3552;42.664;23.406;2022-09-12T06:52:20;50616.78;;;-141.28;100.00
7022;BME280;3552;42.664;23.406;2022-09-12T06:54:47;50575.56;;;-141.28;100.00
7022;BME280;3552;42.664;23.406;2022-09-12T06:57:16;50573.59;;;-141.28;100.00
7022;BME280;3552;42.664;23.406;2022-09-12T06:59:46;50650.16;;;-141.28;100.00
7022;BME280;3552;42.664;23.406;2022-09-12T07:02:13;50687.47;;;-141.28;100.00
7022;BME280;3552;42.664;23.406;2022-09-12T07:04:40;50734.56;;;-141.28;100.00
7022;BME280;3552;42.664;23.406;2022-09-12T07:07:07;50711.00;;;-141.28;100.00
7022;BME280;3552;42.664;23.406;2022-09-12T07:09:34;50722.78;;;-141.28;100.00
7022;BME280;3552;42.664;23.406;2022-09-12T07:12:02;50758.13;;;-141.28;100.00
7022;BME280;3552;42.664;23.406;2022-09-12T07:14:30;50765.97;;;-141.28;100.00
7022;BME280;3552;42.664;23.406;2022-09-12T07:17:00;50860.19;;;-141.28;100.00
7022;BME280;3552;42.664;23.406;2022-09-12T07:19:27;50838.63;;;-141.28;100.00
7022;BME280;3552;42.664;23.406;2022-09-12T07:21:54;50885.72;;;-141.28;100.00
7022;BME280;3552;42.664;23.406;2022-09-12T07:24:21;50976.03;;;-141.28;100.00
7022;BME280;3552;42.664;23.406;2022-09-12T07:26:48;51017.25;;;-141.28;100.00
7022;BME280;3552;42.664;23.406;2022-09-12T07:29:16;51156.66;;;-141.28;100.00
7022;BME280;3552;42.664;23.406;2022-09-12T07:31:43;51274.44;;;-141.28;100.00
7022;BME280;3552;42.664;23.406;2022-09-12T07:34:11;51374.56;;;-141.28;100.00
7022;BME280;3552;42.664;23.406;2022-09-12T07:36:39;51492.38;;;-141.28;100.00
7022;BME280;3552;42.664;23.406;2022-09-12T07:39:06;51696.59;;;-141.28;100.00
7022;BME280;3552;42.664;23.406;2022-09-12T07:41:34;51865.47;;;-141.28;100.00
7022;BME280;3552;42.664;23.406;2022-09-12T07:44:02;51979.34;;;-141.28;100.00
7022;BME280;3552;42.664;23.406;2022-09-12T07:46:31;52140.38;;;-141.28;100.00
7022;BME280;3552;42.664;23.406;2022-09-12T07:48:59;52191.44;;;-141.28;100.00
7022;BME280;3552;42.664;23.406;2022-09-12T07:51:29;52183.59;;;-141.28;100.00
7022;BME280;3552;42.664;23.406;2022-09-12T07:53:57;52220.91;;;-141.28;100.00
7022;BME280;3552;42.664;23.406;2022-09-12T07:56:25;52203.22;;;-141.28;100.00
7022;BME280;3552;42.664;23.406;2022-09-12T07:58:54;52191.44;;;-141.28;100.00
7022;BME280;3552;42.664;23.406;2022-09-12T08:01:21;52230.72;;;-141.28;100.00
7022;BME280;3552;42.664;23.406;2022-09-12T08:03:52;52132.53;;;-141.28;100.00
7022;BME280;3552;42.664;23.406;2022-09-12T08:06:23;52199.28;;;-141.28;100.00
7022;BME280;3552;42.664;23.406;2022-09-12T08:08:53;52321.06;;;-141.28;100.00
7022;BME280;3552;42.664;23.406;2022-09-12T08:11:22;52356.41;;;-141.28;100.00
7022;BME280;3552;42.664;23.406;2022-09-12T08:13:49;52305.34;;;-141.28;100.00
7022;BME280;3552;42.664;23.406;2022-09-12T08:16:19;52321.06;;;-141.28;100.00
7022;BME280;3552;42.664;23.406;2022-09-12T08:18:47;52315.16;;;-141.28;100.00
7022;BME280;3552;42.664;23.406;2022-09-12T08:21:16;52356.41;;;-141.28;100.00
7022;BME280;3552;42.664;23.406;2022-09-12T08:23:45;52446.75;;;-141.28;100.00
7022;BME280;3552;42.664;23.406;2022-09-12T08:26:14;52429.06;;;-141.28;100.00
7022;BME280;3552;42.664;23.406;2022-09-12T08:28:43;52458.53;;;-141.28;100.00
7022;BME280;3552;42.664;23.406;2022-09-12T08:31:12;52450.69;;;-141.28;100.00
7022;BME280;3552;42.664;23.406;2022-09-12T08:33:40;52423.19;;;-141.28;100.00
7022;BME280;3552;42.664;23.406;2022-09-12T08:36:10;52454.59;;;-141.28;100.00
7022;BME280;3552;42.664;23.406;2022-09-12T08:38:39;52497.81;;;-141.28;100.00
7022;BME280;3552;42.664;23.406;2022-09-12T08:41:12;52462.47;;;-141.28;100.00
7022;BME280;3552;42.664;23.406;2022-09-12T08:44:11;52434.97;;;-141.28;100.00
7022;BME280;3552;42.664;23.406;2022-09-12T08:46:50;52452.66;;;-141.28;100.00
7022;BME280;3552;42.664;23.406;2022-09-12T08:49:27;52466.41;;;-141.28;100.00
7022;BME280;3552;42.664;23.406;2022-09-12T08:51:59;52423.19;;;-141.28;100.00
7022;BME280;3552;42.664;23.406;2022-09-12T08:54:30;52413.38;;;-141.28;100.00
7022;BME280;3552;42.664;23.406;2022-09-12T08:57:02;52486.03;;;-141.28;100.00
7022;BME280;3552;42.664;23.406;2022-09-12T08:59:36;52401.59;;;-141.28;100.00
7022;BME280;3552;42.664;23.406;2022-09-12T09:02:25;52417.28;;;-141.28;100.00
7022;BME280;3552;42.664;23.406;2022-09-12T09:05:03;52399.63;;;-141.28;100.00
7022;BME280;3552;42.664;23.406;2022-09-12T09:08:02;52383.91;;;-141.28;100.00
7022;BME280;3552;42.664;23.406;2022-09-12T09:10:37;52379.97;;;-141.28;100.00
7022;BME280;3552;42.664;23.406;2022-09-12T09:13:17;52448.72;;;-141.28;100.00
7022;BME280;3552;42.664;23.406;2022-09-12T09:16:16;52537.09;;;-141.28;100.00
7022;BME280;3552;42.664;23.406;2022-09-12T09:18:49;52548.88;;;-141.28;100.00
7022;BME280;3552;42.664;23.406;2022-09-12T09:21:22;52438.91;;;-141.28;100.00
7022;BME280;3552;42.664;23.406;2022-09-12T09:23:55;52442.81;;;-141.28;100.00
7022;BME280;3552;42.664;23.406;2022-09-12T09:26:28;52413.38;;;-141.28;100.00
7022;BME280;3552;42.664;23.406;2022-09-12T09:29:04;52423.19;;;-141.28;100.00
7022;BME280;3552;42.664;23.406;2022-09-12T09:31:37;52470.31;;;-141.28;100.00
7022;BME280;3552;42.664;23.406;2022-09-12T09:34:10;52425.16;;;-141.28;100.00
7022;BME280;3552;42.664;23.406;2022-09-12T09:36:49;52434.97;;;-141.28;100.00
7022;BME280;3552;42.664;23.406;2022-09-12T09:39:24;52433.00;;;-141.28;100.00
7022;BME280;3552;42.664;23.406;2022-09-12T09:42:02;52399.63;;;-141.28;100.00
7022;BME280;3552;42.664;23.406;2022-09-12T09:44:34;52411.41;;;-141.28;100.00
7022;BME280;3552;42.664;23.406;2022-09-12T09:47:03;52309.28;;;-141.28;100.00
7022;BME280;3552;42.664;23.406;2022-09-12T09:49:33;52173.78;;;-141.28;100.00
7022;BME280;3552;42.664;23.406;2022-09-12T09:52:01;52077.53;;;-141.28;100.00
7022;BME280;3552;42.664;23.406;2022-09-12T09:54:34;51908.66;;;-141.28;100.00
7022;BME280;3552;42.664;23.406;2022-09-12T09:57:02;51822.25;;;-141.28;100.00
7022;BME280;3552;42.664;23.406;2022-09-12T09:59:32;51794.75;;;-141.28;100.00
7022;BME280;3552;42.664;23.406;2022-09-12T10:02:20;51786.91;;;-141.28;100.00
7022;BME280;3552;42.664;23.406;2022-09-12T10:04:53;51782.97;;;-141.28;100.00
7022;BME280;3552;42.664;23.406;2022-09-12T10:07:22;51775.13;;;-141.28;100.00
7022;BME280;3552;42.664;23.406;2022-09-12T10:10:06;51708.38;;;-141.28;100.00
7022;BME280;3552;42.664;23.406;2022-09-12T10:12:40;51598.41;;;-141.28;100.00
7022;BME280;3552;42.664;23.406;2022-09-12T10:15:16;51641.59;;;-141.28;100.00
7022;BME280;3552;42.664;23.406;2022-09-12T10:17:46;51661.25;;;-141.28;100.00
7022;BME280;3552;42.664;23.406;2022-09-12T10:20:30;51559.13;;;-141.28;100.00
7022;BME280;3552;42.664;23.406;2022-09-12T10:22:59;51402.06;;;-141.28;100.00
7022;BME280;3552;42.664;23.406;2022-09-12T10:25:27;51252.84;;;-141.28;100.00
7022;BME280;3552;42.664;23.406;2022-09-12T10:27:56;51166.47;;;-141.28;100.00
7022;BME280;3552;42.664;23.406;2022-09-12T10:30:25;50930.88;;;-141.28;100.00
7022;BME280;3552;42.664;23.406;2022-09-12T10:32:57;50818.97;;;-141.28;100.00
7022;BME280;3552;42.664;23.406;2022-09-12T10:35:28;50654.09;;;-141.28;100.00
7022;BME280;3552;42.664;23.406;2022-09-12T10:38:00;50985.84;;;-141.28;100.00
7022;BME280;3552;42.664;23.406;2022-09-12T10:40:30;51142.91;;;-141.28;100.00
7022;BME280;3552;42.664;23.406;2022-09-12T10:42:59;51117.38;;;-141.28;100.00
7022;BME280;3552;42.664;23.406;2022-09-12T10:45:28;51068.28;;;-141.28;100.00
7022;BME280;3552;42.664;23.406;2022-09-12T10:48:00;50871.97;;;-141.28;100.00
7022;BME280;3552;42.664;23.406;2022-09-12T10:50:30;50877.88;;;-141.28;100.00
7022;BME280;3552;42.664;23.406;2022-09-12T10:53:17;50712.97;;;-141.28;100.00
7022;BME280;3552;42.664;23.406;2022-09-12T10:56:07;50728.69;;;-141.28;100.00
7022;BME280;3552;42.664;23.406;2022-09-12T10:59:01;50504.91;;;-141.28;100.00
7022;BME280;3552;42.664;23.406;2022-09-12T11:01:37;50216.38;;;-141.28;100.00
7022;BME280;3552;42.664;23.406;2022-09-12T11:04:30;50063.28;;;-141.28;100.00
7022;BME280;3552;42.664;23.406;2022-09-12T11:07:37;49961.22;;;-141.28;100.00
7022;BME280;3552;42.664;23.406;2022-09-12T11:10:22;50106.47;;;-141.28;100.00
7022;BME280;3552;42.664;23.406;2022-09-12T11:12:57;50063.28;;;-141.28;100.00
7022;BME280;3552;42.664;23.406;2022-09-12T11:15:41;49980.84;;;-141.28;100.00
7022;BME280;3552;42.664;23.406;2022-09-12T11:18:26;50016.19;;;-141.28;100.00
7022;BME280;3552;42.664;23.406;2022-09-12T11:21:08;50043.66;;;-141.28;100.00
7022;BME280;3552;42.664;23.406;2022-09-12T11:26:49;49937.69;;;-141.28;100.00
7022;BME280;3552;42.664;23.406;2022-09-12T11:29:32;50204.59;;;-141.28;100.00
7022;BME280;3552;42.664;23.406;2022-09-12T11:32:11;50004.41;;;-141.28;100.00
7022;BME280;3552;42.664;23.406;2022-09-12T11:34:51;49996.56;;;-141.28;100.00
7022;BME280;3552;42.664;23.406;2022-09-12T11:37:55;49969.06;;;-141.28;100.00
7022;BME280;3552;42.664;23.406;2022-09-12T11:40:28;50031.88;;;-141.28;100.00
7022;BME280;3552;42.664;23.406;2022-09-12T11:43:02;50192.81;;;-141.28;100.00
7022;BME280;3552;42.664;23.406;2022-09-12T11:45:36;50414.63;;;-141.28;100.00
7022;BME280;3552;42.664;23.406;2022-09-12T11:48:08;50481.34;;;-141.28;100.00
7022;BME280;3552;42.664;23.406;2022-09-12T11:50:37;50597.16;;;-141.28;100.00
7022;BME280;3552;42.664;23.406;2022-09-12T11:53:13;50665.88;;;-141.28;100.00
7022;BME280;3552;42.664;23.406;2022-09-12T11:55:48;50656.06;;;-141.28;100.00
7022;BME280;3552;42.664;23.406;2022-09-12T11:58:19;50561.81;;;-141.28;100.00
7022;BME280;3552;42.664;23.406;2022-09-12T12:00:50;50402.84;;;-141.28;100.00
7022;BME280;3552;42.664;23.406;2022-09-12T12:03:24;50216.38;;;-141.28;100.00
7022;BME280;3552;42.664;23.406;2022-09-12T12:05:58;50045.63;;;-141.28;100.00
7022;BME280;3552;42.664;23.406;2022-09-12T12:08:33;49965.16;;;-141.28;100.00
7022;BME280;3552;42.664;23.406;2022-09-12T12:11:04;49992.63;;;-141.28;100.00
7022;BME280;3552;42.664;23.406;2022-09-12T12:13:35;50078.97;;;-141.28;100.00
7022;BME280;3552;42.664;23.406;2022-09-12T12:16:07;50086.84;;;-141.28;100.00
7022;BME280;3552;42.664;23.406;2022-09-12T12:18:39;50181.03;;;-141.28;100.00
7022;BME280;3552;42.664;23.406;2022-09-12T12:21:20;50239.94;;;-141.28;100.00
7022;BME280;3552;42.664;23.406;2022-09-12T12:24:12;50184.97;;;-141.28;100.00
7022;BME280;3552;42.664;23.406;2022-09-12T12:29:41;50216.38;;;-141.28;100.00
7022;BME280;3552;42.664;23.406;2022-09-12T12:32:24;49855.25;;;-141.28;100.00
7022;BME280;3552;42.664;23.406;2022-09-12T12:35:09;49655.09;;;-141.28;100.00
7022;BME280;3552;42.664;23.406;2022-09-12T12:37:53;49604.06;;;-141.28;100.00
7022;BME280;3552;42.664;23.406;2022-09-12T12:40:29;49666.84;;;-141.28;100.00
7022;BME280;3552;42.664;23.406;2022-09-12T12:46:08;49694.31;;;-141.28;100.00
7022;BME280;3552;42.664;23.406;2022-09-12T12:51:33;49772.81;;;-141.28;100.00
7022;BME280;3552;42.664;23.406;2022-09-12T12:54:05;49651.16;;;-141.28;100.00
7022;BME280;3552;42.664;23.406;2022-09-12T12:59:50;49804.22;;;-141.28;100.00
7022;BME280;3552;42.664;23.406;2022-09-12T13:02:26;49764.97;;;-141.28;100.00
7022;BME280;3552;42.664;23.406;2022-09-12T13:04:55;49588.34;;;-141.28;100.00
7022;BME280;3552;42.664;23.406;2022-09-12T13:07:33;49454.94;;;-141.28;100.00
7022;BME280;3552;42.664;23.406;2022-09-12T13:10:04;49582.47;;;-141.28;100.00
7022;BME280;3552;42.664;23.406;2022-09-12T13:12:35;49666.84;;;-141.28;100.00
7022;BME280;3552;42.664;23.406;2022-09-12T13:18:15;49639.38;;;-141.28;100.00
7022;BME280;3552;42.664;23.406;2022-09-12T13:20:47;49521.63;;;-141.28;100.00
7022;BME280;3552;42.664;23.406;2022-09-12T13:23:21;49568.75;;;-141.28;100.00
7022;BME280;3552;42.664;23.406;2022-09-12T13:25:52;49590.31;;;-141.28;100.00